Time;durP1;ratioP1;P1;durP2;ratioP2;P2;SDS_P1;SDS_P2;PMS_P1;PMS_P2;Temp;Humidity;BMP_temperature;BMP_pressure;BME280_temperature;BME280_humidity;BME280_pressure;Samples;Min_cycle;Max_cycle;Signal;HPM_P1;HPM_P2
2021/05/14 00:00:36;;;;;;;4.47;4.10;;;;;;;;;;5071587;28;20624;-67
2021/05/14 00:03:03;;;;;;;6.27;4.40;;;;;;;;;;5070751;28;20455;-67
2021/05/14 00:05:29;;;;;;;3.87;3.47;;;;;;;;;;5074200;28;20467;-69
2021/05/14 00:07:56;;;;;;;3.90;3.50;;;;;;;;;;5074288;28;20557;-66
2021/05/14 00:10:23;;;;;;;6.23;4.10;;;;;;;;;;5075002;28;20486;-67
2021/05/14 00:12:50;;;;;;;3.77;3.30;;;;;;;;;;5074904;28;20522;-66
2021/05/14 00:15:17;;;;;;;4.17;3.60;;;;;;;;;;5074404;28;20450;-67
2021/05/14 00:17:45;;;;;;;3.43;3.13;;;;;;;;;;5074477;28;20485;-67
2021/05/14 00:20:12;;;;;;;4.30;3.90;;;;;;;;;;5074516;28;20508;-66
2021/05/14 00:22:39;;;;;;;5.03;3.37;;;;;;;;;;5074905;28;20487;-67
2021/05/14 00:25:06;;;;;;;5.53;4.87;;;;;;;;;;5074601;28;20454;-66
2021/05/14 00:27:33;;;;;;;5.00;3.73;;;;;;;;;;5074431;28;20470;-67
2021/05/14 00:29:59;;;;;;;3.70;3.13;;;;;;;;;;5074133;28;20557;-66
2021/05/14 00:32:26;;;;;;;7.77;3.93;;;;;;;;;;5074081;28;20457;-66
2021/05/14 00:34:53;;;;;;;8.07;3.43;;;;;;;;;;5085227;28;20452;-68
2021/05/14 00:37:20;;;;;;;5.10;3.80;;;;;;;;;;5081329;28;20550;-66
2021/05/14 00:39:47;;;;;;;4.43;3.20;;;;;;;;;;5078545;28;20446;-67
2021/05/14 00:42:13;;;;;;;5.50;3.90;;;;;;;;;;5094752;28;20565;-66
2021/05/14 00:44:43;;;;;;;4.60;3.10;;;;;;;;;;5089784;28;20455;-66
2021/05/14 00:47:10;;;;;;;6.70;3.47;;;;;;;;;;5074437;28;20478;-66
2021/05/14 00:49:39;;;;;;;4.93;3.20;;;;;;;;;;5086477;28;20450;-64
2021/05/14 00:52:08;;;;;;;4.00;3.17;;;;;;;;;;5094901;28;20442;-64
2021/05/14 00:54:35;;;;;;;4.67;2.93;;;;;;;;;;5090707;28;20529;-66
2021/05/14 00:57:02;;;;;;;3.83;2.63;;;;;;;;;;5074044;28;20478;-69
2021/05/14 00:59:28;;;;;;;4.73;3.10;;;;;;;;;;5082102;28;20961;-67
2021/05/14 01:01:55;;;;;;;3.50;3.20;;;;;;;;;;5080661;28;20485;-69
2021/05/14 01:04:22;;;;;;;4.60;3.47;;;;;;;;;;5080976;28;20450;-69
2021/05/14 01:06:49;;;;;;;5.20;2.80;;;;;;;;;;5074383;28;20447;-66
2021/05/14 01:09:16;;;;;;;2.97;2.67;;;;;;;;;;5074612;28;20458;-67
2021/05/14 01:11:43;;;;;;;5.30;3.83;;;;;;;;;;5073988;28;20447;-66
2021/05/14 01:14:09;;;;;;;3.60;3.03;;;;;;;;;;5085530;28;20499;-67
2021/05/14 01:16:36;;;;;;;4.27;2.87;;;;;;;;;;5090506;28;20921;-66
2021/05/14 01:19:03;;;;;;;4.17;2.90;;;;;;;;;;5082494;28;20481;-66
2021/05/14 01:21:31;;;;;;;3.50;2.77;;;;;;;;;;5074109;28;20540;-66
2021/05/14 01:23:58;;;;;;;6.57;3.60;;;;;;;;;;5093179;28;20442;-67
2021/05/14 01:26:26;;;;;;;4.03;2.80;;;;;;;;;;5091954;28;20945;-66
2021/05/14 01:28:54;;;;;;;3.60;2.40;;;;;;;;;;5092734;28;21026;-67
2021/05/14 01:31:20;;;;;;;6.23;3.13;;;;;;;;;;5081219;28;20933;-66
2021/05/14 01:33:47;;;;;;;5.20;2.80;;;;;;;;;;5093835;28;20449;-65
2021/05/14 01:36:13;;;;;;;4.80;3.03;;;;;;;;;;5077496;28;20450;-68
2021/05/14 01:38:41;;;;;;;5.53;3.30;;;;;;;;;;5092519;28;20469;-65
2021/05/14 01:41:08;;;;;;;3.57;2.93;;;;;;;;;;5079231;28;20473;-68
2021/05/14 01:43:35;;;;;;;3.30;2.80;;;;;;;;;;5093802;28;20446;-66
2021/05/14 01:46:02;;;;;;;4.97;3.30;;;;;;;;;;5080612;28;20507;-66
2021/05/14 01:48:28;;;;;;;4.20;2.70;;;;;;;;;;5093528;28;20477;-66
2021/05/14 01:50:55;;;;;;;5.93;3.93;;;;;;;;;;5080849;28;20457;-66
2021/05/14 01:53:22;;;;;;;5.33;3.00;;;;;;;;;;5093326;28;20941;-65
2021/05/14 01:55:49;;;;;;;4.43;3.60;;;;;;;;;;5074510;28;20451;-67
2021/05/14 01:58:16;;;;;;;7.00;3.43;;;;;;;;;;5073465;28;20463;-66
2021/05/14 02:00:42;;;;;;;3.83;2.63;;;;;;;;;;5088794;28;20828;-67
2021/05/14 02:03:09;;;;;;;6.83;3.00;;;;;;;;;;5073090;28;20457;-65
2021/05/14 02:05:35;;;;;;;3.50;3.00;;;;;;;;;;5072679;28;20534;-66
2021/05/14 02:08:02;;;;;;;3.87;3.17;;;;;;;;;;5072814;28;20479;-66
2021/05/14 02:10:29;;;;;;;5.33;3.30;;;;;;;;;;5085740;28;20529;-67
2021/05/14 02:12:56;;;;;;;4.90;3.00;;;;;;;;;;5082323;28;20542;-66
2021/05/14 02:15:23;;;;;;;6.73;3.97;;;;;;;;;;5092857;28;20450;-70
2021/05/14 02:17:49;;;;;;;4.83;3.33;;;;;;;;;;5081960;28;20477;-70
2021/05/14 02:20:16;;;;;;;6.73;3.60;;;;;;;;;;5093124;28;20449;-65
2021/05/14 02:22:43;;;;;;;6.67;3.40;;;;;;;;;;5087216;28;20489;-68
2021/05/14 02:25:09;;;;;;;4.53;3.50;;;;;;;;;;5072375;28;20534;-70
2021/05/14 02:27:36;;;;;;;4.73;3.40;;;;;;;;;;5086183;28;20467;-65
2021/05/14 02:30:04;;;;;;;5.90;3.60;;;;;;;;;;5092870;28;20442;-68
2021/05/14 02:32:31;;;;;;;4.70;2.93;;;;;;;;;;5090097;28;20450;-68
2021/05/14 02:34:57;;;;;;;5.63;4.40;;;;;;;;;;5072688;28;20449;-65
2021/05/14 02:37:24;;;;;;;4.03;3.20;;;;;;;;;;5071814;28;21012;-66
2021/05/14 02:39:51;;;;;;;7.47;3.30;;;;;;;;;;5071998;28;20451;-66
2021/05/14 02:42:18;;;;;;;5.33;3.70;;;;;;;;;;5071995;28;20483;-66
2021/05/14 02:44:46;;;;;;;11.73;4.33;;;;;;;;;;5072115;28;20451;-66
2021/05/14 02:47:14;;;;;;;8.10;4.07;;;;;;;;;;5071217;28;21029;-66
2021/05/14 02:49:40;;;;;;;10.07;4.80;;;;;;;;;;5072016;28;20541;-66
2021/05/14 02:52:07;;;;;;;6.47;3.73;;;;;;;;;;5071862;28;20458;-66
2021/05/14 02:54:35;;;;;;;4.80;3.63;;;;;;;;;;5071996;28;20454;-66
2021/05/14 02:57:02;;;;;;;5.90;3.93;;;;;;;;;;5071476;28;20459;-67
2021/05/14 02:59:29;;;;;;;6.33;3.40;;;;;;;;;;5071966;28;20446;-67
2021/05/14 03:01:55;;;;;;;5.80;4.13;;;;;;;;;;5071689;28;20485;-66
2021/05/14 03:04:23;;;;;;;5.57;3.37;;;;;;;;;;5071639;28;20447;-67
2021/05/14 03:06:49;;;;;;;6.77;4.27;;;;;;;;;;5071092;28;20482;-68
2021/05/14 03:09:16;;;;;;;8.63;4.77;;;;;;;;;;5071631;28;20451;-67
2021/05/14 03:11:43;;;;;;;5.60;3.47;;;;;;;;;;5071103;28;20472;-67
2021/05/14 03:14:09;;;;;;;7.90;4.90;;;;;;;;;;5071722;28;20451;-67
2021/05/14 03:16:36;;;;;;;5.60;3.63;;;;;;;;;;5070776;28;20451;-67
2021/05/14 03:19:03;;;;;;;4.93;3.40;;;;;;;;;;5071425;28;20485;-67
2021/05/14 03:21:31;;;;;;;8.60;4.90;;;;;;;;;;5070959;28;20485;-67
2021/05/14 03:23:58;;;;;;;7.10;4.27;;;;;;;;;;5071830;28;20481;-67
2021/05/14 03:26:25;;;;;;;8.03;4.23;;;;;;;;;;5070975;28;20499;-67
2021/05/14 03:28:51;;;;;;;6.67;4.23;;;;;;;;;;5071065;28;20818;-67
2021/05/14 03:31:18;;;;;;;9.37;4.97;;;;;;;;;;5072566;28;20446;-66
2021/05/14 03:33:45;;;;;;;9.20;5.73;;;;;;;;;;5071576;28;20813;-67
2021/05/14 03:36:13;;;;;;;8.67;3.97;;;;;;;;;;5087281;28;20450;-67
2021/05/14 03:38:40;;;;;;;8.83;4.77;;;;;;;;;;5072424;28;20478;-67
2021/05/14 03:41:19;;;;;;;8.10;4.20;;;;;;;;;;5093441;28;20481;-67
2021/05/14 03:43:45;;;;;;;6.73;4.03;;;;;;;;;;5095831;28;20901;-66
2021/05/14 03:46:12;;;;;;;6.90;4.30;;;;;;;;;;5094654;28;20453;-66
2021/05/14 03:48:39;;;;;;;8.30;4.10;;;;;;;;;;5093758;28;20995;-68
2021/05/14 03:51:05;;;;;;;6.90;4.17;;;;;;;;;;5080053;28;20439;-67
2021/05/14 03:53:32;;;;;;;7.27;4.23;;;;;;;;;;5075731;28;20454;-67
2021/05/14 03:55:59;;;;;;;7.03;4.30;;;;;;;;;;5079853;28;20859;-68
2021/05/14 03:58:26;;;;;;;8.83;3.70;;;;;;;;;;5077643;28;20836;-66
2021/05/14 04:00:53;;;;;;;5.97;3.77;;;;;;;;;;5075866;28;20790;-68
2021/05/14 04:03:21;;;;;;;6.33;4.43;;;;;;;;;;5076926;28;20953;-67
2021/05/14 04:05:48;;;;;;;7.03;4.63;;;;;;;;;;5074840;28;20447;-67
2021/05/14 04:08:15;;;;;;;8.63;6.03;;;;;;;;;;5075129;28;20558;-67
2021/05/14 04:11:02;;;;;;;5.93;4.10;;;;;;;;;;5093793;28;20544;-68
2021/05/14 04:16:14;;;;;;;6.73;5.27;;;;;;;;;;5074777;28;20901;-67
2021/05/14 04:18:41;;;;;;;5.60;3.43;;;;;;;;;;5092541;22;20876;-63
2021/05/14 04:21:07;;;;;;;7.70;3.80;;;;;;;;;;5074683;28;20486;-63
2021/05/14 04:23:34;;;;;;;8.17;4.83;;;;;;;;;;5074894;28;20458;-63
2021/05/14 04:26:01;;;;;;;5.70;4.23;;;;;;;;;;5073623;28;20852;-63
2021/05/14 04:28:28;;;;;;;9.00;4.20;;;;;;;;;;5075067;28;20844;-62
2021/05/14 04:30:55;;;;;;;8.07;4.30;;;;;;;;;;5074900;28;20454;-62
2021/05/14 04:33:22;;;;;;;5.47;3.90;;;;;;;;;;5062194;28;20462;-63
2021/05/14 04:35:49;;;;;;;7.80;4.73;;;;;;;;;;5055668;28;20542;-63
2021/05/14 04:38:15;;;;;;;8.63;5.30;;;;;;;;;;5064786;28;20478;-63
2021/05/14 04:40:42;;;;;;;9.10;4.50;;;;;;;;;;5054679;28;20447;-62
2021/05/14 04:43:09;;;;;;;8.60;5.40;;;;;;;;;;5054432;28;20494;-63
2021/05/14 04:45:36;;;;;;;6.87;5.00;;;;;;;;;;5067295;28;20451;-63
2021/05/14 04:48:05;;;;;;;8.00;4.80;;;;;;;;;;5065959;28;20475;-63
2021/05/14 04:50:32;;;;;;;6.03;3.70;;;;;;;;;;5053464;28;20451;-63
2021/05/14 04:53:02;;;;;;;7.67;4.70;;;;;;;;;;5054961;28;20445;-63
2021/05/14 04:55:28;;;;;;;6.60;4.10;;;;;;;;;;5060876;28;20501;-64
2021/05/14 04:57:55;;;;;;;7.00;4.50;;;;;;;;;;5054182;28;20471;-63
2021/05/14 05:00:22;;;;;;;10.83;4.67;;;;;;;;;;5052643;28;20453;-63
2021/05/14 05:02:49;;;;;;;8.80;4.47;;;;;;;;;;5073815;28;20489;-63
2021/05/14 05:05:16;;;;;;;6.80;4.10;;;;;;;;;;5072050;28;20455;-63
2021/05/14 05:07:43;;;;;;;8.50;4.80;;;;;;;;;;5053905;28;20863;-63
2021/05/14 05:10:10;;;;;;;6.30;3.70;;;;;;;;;;5060053;28;20451;-63
2021/05/14 05:12:37;;;;;;;5.77;3.57;;;;;;;;;;5054676;28;20897;-63
2021/05/14 05:15:03;;;;;;;7.30;3.60;;;;;;;;;;5053230;28;20448;-63
2021/05/14 05:17:30;;;;;;;6.10;3.80;;;;;;;;;;5069912;28;20455;-63
2021/05/14 05:19:57;;;;;;;8.20;4.07;;;;;;;;;;5072218;28;20451;-62
2021/05/14 05:22:24;;;;;;;6.83;3.33;;;;;;;;;;5051108;28;20847;-63
2021/05/14 05:24:51;;;;;;;6.90;4.03;;;;;;;;;;5053967;28;20456;-63
2021/05/14 05:27:18;;;;;;;6.87;4.10;;;;;;;;;;5067539;28;20890;-63
2021/05/14 05:29:44;;;;;;;6.03;3.13;;;;;;;;;;5073192;28;20454;-63
2021/05/14 05:32:11;;;;;;;6.97;3.63;;;;;;;;;;5059840;28;20786;-63
2021/05/14 05:34:37;;;;;;;8.00;3.70;;;;;;;;;;5055139;28;20452;-63
2021/05/14 05:37:04;;;;;;;4.37;3.07;;;;;;;;;;5072712;28;21030;-63
2021/05/14 05:39:32;;;;;;;10.03;3.90;;;;;;;;;;5071307;28;20710;-62
2021/05/14 05:41:58;;;;;;;9.40;4.43;;;;;;;;;;5052648;28;20484;-63
2021/05/14 05:44:25;;;;;;;7.30;3.90;;;;;;;;;;5053034;28;20793;-62
2021/05/14 05:46:52;;;;;;;8.87;4.07;;;;;;;;;;5052621;28;20458;-62
2021/05/14 05:49:21;;;;;;;7.50;4.00;;;;;;;;;;5053003;28;20475;-63
2021/05/14 05:51:47;;;;;;;7.37;3.27;;;;;;;;;;5053696;28;20509;-62
2021/05/14 05:54:14;;;;;;;7.93;3.70;;;;;;;;;;5055180;28;20451;-62
2021/05/14 05:56:44;;;;;;;8.57;3.37;;;;;;;;;;5054908;28;20452;-62
2021/05/14 05:59:15;;;;;;;6.53;3.93;;;;;;;;;;5054646;28;20467;-62
2021/05/14 06:01:42;;;;;;;10.33;4.17;;;;;;;;;;5068089;28;20892;-62
2021/05/14 06:04:09;;;;;;;4.10;3.20;;;;;;;;;;5053462;28;20452;-62
2021/05/14 06:06:35;;;;;;;10.20;4.67;;;;;;;;;;5072017;28;20953;-62
2021/05/14 06:09:02;;;;;;;8.17;3.50;;;;;;;;;;5072771;28;20471;-62
2021/05/14 06:11:29;;;;;;;6.23;3.77;;;;;;;;;;5071510;28;21017;-62
2021/05/14 06:13:56;;;;;;;5.80;3.73;;;;;;;;;;5072919;28;20447;-62
2021/05/14 06:16:23;;;;;;;7.53;3.60;;;;;;;;;;5069854;28;20454;-62
2021/05/14 06:18:54;;;;;;;6.47;3.33;;;;;;;;;;5057363;28;20480;-62
2021/05/14 06:21:21;;;;;;;5.23;3.90;;;;;;;;;;5053449;28;20997;-62
2021/05/14 06:23:47;;;;;;;6.80;3.80;;;;;;;;;;5052749;28;20447;-62
2021/05/14 06:26:15;;;;;;;8.90;4.80;;;;;;;;;;5053557;28;20969;-62
2021/05/14 06:28:42;;;;;;;7.50;4.80;;;;;;;;;;5052408;28;20555;-62
2021/05/14 06:31:09;;;;;;;8.63;4.10;;;;;;;;;;5057620;28;20459;-62
2021/05/14 06:33:36;;;;;;;6.80;3.80;;;;;;;;;;5052614;28;20443;-62
2021/05/14 06:36:03;;;;;;;7.93;3.17;;;;;;;;;;5051111;28;20467;-62
2021/05/14 06:38:29;;;;;;;7.73;3.80;;;;;;;;;;5051342;28;20471;-62
2021/05/14 06:40:56;;;;;;;6.87;3.73;;;;;;;;;;5052596;28;20955;-62
2021/05/14 06:43:23;;;;;;;8.77;5.23;;;;;;;;;;5055700;28;20466;-62
2021/05/14 06:45:49;;;;;;;5.97;3.33;;;;;;;;;;5050490;28;20467;-62
2021/05/14 06:48:19;;;;;;;9.73;3.57;;;;;;;;;;5051848;28;20467;-62
2021/05/14 06:50:46;;;;;;;6.87;2.87;;;;;;;;;;5070058;28;20478;-62
2021/05/14 06:53:12;;;;;;;7.90;4.00;;;;;;;;;;5065606;28;20440;-62
2021/05/14 06:55:39;;;;;;;10.70;4.00;;;;;;;;;;5047260;28;20472;-62
2021/05/14 06:58:06;;;;;;;7.77;3.77;;;;;;;;;;5051184;28;20503;-62
2021/05/14 07:00:33;;;;;;;7.93;3.30;;;;;;;;;;5050204;28;20460;-62
2021/05/14 07:02:59;;;;;;;7.97;2.97;;;;;;;;;;5052375;28;20495;-61
2021/05/14 07:05:27;;;;;;;4.83;2.77;;;;;;;;;;5055083;28;20961;-62
2021/05/14 07:07:54;;;;;;;8.47;3.90;;;;;;;;;;5061415;28;20494;-62
2021/05/14 07:10:21;;;;;;;7.33;3.57;;;;;;;;;;5048814;28;20525;-62
2021/05/14 07:12:48;;;;;;;6.50;3.20;;;;;;;;;;5051490;28;20451;-62
2021/05/14 07:15:15;;;;;;;6.43;2.73;;;;;;;;;;5052529;28;20464;-63
2021/05/14 07:17:41;;;;;;;9.00;3.93;;;;;;;;;;5051567;28;20544;-63
2021/05/14 07:20:08;;;;;;;7.83;4.13;;;;;;;;;;5051273;28;20463;-62
2021/05/14 07:22:36;;;;;;;8.37;4.33;;;;;;;;;;5064804;28;20510;-62
2021/05/14 07:25:03;;;;;;;11.33;4.20;;;;;;;;;;5058509;28;20958;-63
2021/05/14 07:27:30;;;;;;;6.60;3.87;;;;;;;;;;5050107;28;20455;-62
2021/05/14 07:29:57;;;;;;;5.50;3.20;;;;;;;;;;5051207;28;20472;-62
2021/05/14 07:32:23;;;;;;;6.97;3.60;;;;;;;;;;5051196;28;20959;-62
2021/05/14 07:34:52;;;;;;;7.37;4.30;;;;;;;;;;5050602;28;21511;-63
2021/05/14 07:37:18;;;;;;;11.70;4.70;;;;;;;;;;5062098;28;20549;-63
2021/05/14 07:39:46;;;;;;;8.07;4.30;;;;;;;;;;5064929;28;20451;-62
2021/05/14 07:42:13;;;;;;;7.40;5.03;;;;;;;;;;5060194;28;20478;-62
2021/05/14 07:44:40;;;;;;;7.10;3.50;;;;;;;;;;5051221;28;20452;-62
2021/05/14 07:47:06;;;;;;;3.93;2.80;;;;;;;;;;5060552;28;20957;-62
2021/05/14 07:49:33;;;;;;;12.00;4.27;;;;;;;;;;5053840;28;20558;-63
2021/05/14 07:52:00;;;;;;;12.10;3.60;;;;;;;;;;5054758;28;20470;-63
2021/05/14 07:54:27;;;;;;;10.13;6.23;;;;;;;;;;5063738;28;21678;-62
2021/05/14 07:56:54;;;;;;;15.93;8.97;;;;;;;;;;5061985;28;20471;-66
2021/05/14 07:59:21;;;;;;;14.60;10.90;;;;;;;;;;5050988;28;20468;-66
2021/05/14 08:01:48;;;;;;;15.90;10.40;;;;;;;;;;5051468;28;21008;-66
2021/05/14 08:04:14;;;;;;;24.67;12.00;;;;;;;;;;5050193;28;20474;-66
2021/05/14 08:06:41;;;;;;;16.47;9.67;;;;;;;;;;5051674;28;20965;-66
2021/05/14 08:09:10;;;;;;;12.00;9.50;;;;;;;;;;5066737;28;20471;-66
2021/05/14 08:11:37;;;;;;;16.13;10.30;;;;;;;;;;5069160;28;20447;-64
2021/05/14 08:14:05;;;;;;;16.70;10.37;;;;;;;;;;5065221;28;20496;-64
2021/05/14 08:16:31;;;;;;;15.00;9.43;;;;;;;;;;5070137;28;20453;-64
2021/05/14 08:18:58;;;;;;;15.03;10.10;;;;;;;;;;5070724;28;20482;-64
2021/05/14 08:21:25;;;;;;;11.90;9.47;;;;;;;;;;5059691;28;20530;-64
2021/05/14 08:23:51;;;;;;;16.33;10.17;;;;;;;;;;5071300;28;20464;-64
2021/05/14 08:26:18;;;;;;;15.00;9.90;;;;;;;;;;5073589;28;20477;-64
2021/05/14 08:28:44;;;;;;;12.70;10.13;;;;;;;;;;5071266;28;20525;-64
2021/05/14 08:31:13;;;;;;;18.53;10.23;;;;;;;;;;5055118;28;20452;-64
2021/05/14 08:33:39;;;;;;;18.20;10.83;;;;;;;;;;5034822;28;20460;-64
2021/05/14 08:36:06;;;;;;;16.90;11.17;;;;;;;;;;5037351;28;20454;-64
2021/05/14 08:38:33;;;;;;;17.10;11.90;;;;;;;;;;5073177;28;20500;-64
2021/05/14 08:41:04;;;;;;;18.10;11.80;;;;;;;;;;5054864;28;20451;-63
2021/05/14 08:43:30;;;;;;;17.50;12.27;;;;;;;;;;5034697;28;20492;-64
2021/05/14 08:45:57;;;;;;;16.87;11.80;;;;;;;;;;5034221;28;20459;-64
2021/05/14 08:48:25;;;;;;;14.07;11.57;;;;;;;;;;5054223;28;20490;-64
2021/05/14 08:50:52;;;;;;;22.20;13.50;;;;;;;;;;5054554;28;20946;-63
2021/05/14 08:53:19;;;;;;;16.93;13.47;;;;;;;;;;5054775;28;20448;-64
2021/05/14 08:55:46;;;;;;;15.67;12.27;;;;;;;;;;5053531;28;20966;-64
2021/05/14 08:58:12;;;;;;;14.90;13.20;;;;;;;;;;5054620;28;20478;-64
2021/05/14 09:00:39;;;;;;;15.63;12.30;;;;;;;;;;5054237;28;20997;-64
2021/05/14 09:03:09;;;;;;;16.43;13.43;;;;;;;;;;5068766;28;20482;-64
2021/05/14 09:05:37;;;;;;;16.90;13.43;;;;;;;;;;5073974;28;20497;-64
2021/05/14 09:08:04;;;;;;;15.63;13.40;;;;;;;;;;5073466;28;20858;-64
2021/05/14 09:10:31;;;;;;;21.00;13.67;;;;;;;;;;5059456;28;20455;-64
2021/05/14 09:12:58;;;;;;;18.57;13.43;;;;;;;;;;5054396;28;20456;-64
2021/05/14 09:15:26;;;;;;;18.17;14.13;;;;;;;;;;5053543;28;20501;-64
2021/05/14 09:18:02;;;;;;;21.03;15.30;;;;;;;;;;5062905;28;20483;-64
2021/05/14 09:20:34;;;;;;;20.50;14.90;;;;;;;;;;5053720;28;20498;-64
2021/05/14 09:23:01;;;;;;;16.90;14.70;;;;;;;;;;5054223;28;20483;-64
2021/05/14 09:25:28;;;;;;;18.03;15.40;;;;;;;;;;5053504;28;20444;-64
2021/05/14 09:27:55;;;;;;;20.20;14.00;;;;;;;;;;5053569;28;20606;-64
2021/05/14 09:30:21;;;;;;;19.47;15.03;;;;;;;;;;5053228;28;20455;-64
2021/05/14 09:32:48;;;;;;;20.70;15.33;;;;;;;;;;5069535;28;20447;-64
2021/05/14 09:35:15;;;;;;;16.50;14.90;;;;;;;;;;5071927;28;20447;-64
2021/05/14 09:37:48;;;;;;;19.40;14.33;;;;;;;;;;5072521;28;20873;-63
2021/05/14 09:40:17;;;;;;;19.63;15.47;;;;;;;;;;5065773;28;20456;-63
2021/05/14 09:42:44;;;;;;;20.40;14.90;;;;;;;;;;5053427;28;20491;-64
2021/05/14 09:45:18;;;;;;;17.43;13.50;;;;;;;;;;5059432;28;20447;-64
2021/05/14 09:47:46;;;;;;;17.17;15.30;;;;;;;;;;5072266;28;20823;-64
2021/05/14 09:50:29;;;;;;;19.73;15.77;;;;;;;;;;5073296;28;20459;-64
2021/05/14 09:53:06;;;;;;;18.03;16.00;;;;;;;;;;5068528;28;20448;-65
2021/05/14 09:55:35;;;;;;;17.53;15.87;;;;;;;;;;5053055;28;20448;-64
2021/05/14 09:58:08;;;;;;;21.27;16.20;;;;;;;;;;5053085;28;20472;-64
2021/05/14 10:00:35;;;;;;;17.87;15.47;;;;;;;;;;5053223;28;20467;-64
2021/05/14 10:03:03;;;;;;;20.23;16.97;;;;;;;;;;5052825;28;21012;-64
2021/05/14 10:05:30;;;;;;;18.63;15.80;;;;;;;;;;5052148;28;20539;-64
2021/05/14 10:08:01;;;;;;;17.27;15.60;;;;;;;;;;5053088;28;20475;-64
2021/05/14 10:10:28;;;;;;;17.77;16.07;;;;;;;;;;5052898;28;20927;-64
2021/05/14 10:12:56;;;;;;;19.03;17.03;;;;;;;;;;5053579;28;20436;-64
2021/05/14 10:15:24;;;;;;;22.10;16.00;;;;;;;;;;5052262;28;20515;-64
2021/05/14 10:17:52;;;;;;;17.80;15.30;;;;;;;;;;5052253;28;20982;-64
2021/05/14 10:20:20;;;;;;;17.73;15.70;;;;;;;;;;5044799;22;20505;-68
2021/05/14 10:22:47;;;;;;;17.60;15.80;;;;;;;;;;5020915;28;20500;-67
2021/05/14 10:25:20;;;;;;;16.53;14.80;;;;;;;;;;5030871;28;20453;-67
2021/05/14 10:27:47;;;;;;;20.30;16.57;;;;;;;;;;5032439;28;20460;-66
2021/05/14 10:30:15;;;;;;;17.40;15.60;;;;;;;;;;5028711;28;20508;-67
2021/05/14 10:32:51;;;;;;;16.83;15.00;;;;;;;;;;5032381;28;20444;-67
2021/05/14 10:35:19;;;;;;;18.93;14.97;;;;;;;;;;5014246;28;20463;-67
2021/05/14 10:37:45;;;;;;;16.30;14.67;;;;;;;;;;5013163;28;20461;-67
2021/05/14 10:40:31;;;;;;;17.37;13.67;;;;;;;;;;5012510;28;20792;-67
2021/05/14 10:42:58;;;;;;;16.77;14.97;;;;;;;;;;5024737;28;20481;-67
2021/05/14 10:45:36;;;;;;;15.07;13.60;;;;;;;;;;5012213;28;20854;-66
2021/05/14 10:48:02;;;;;;;17.17;14.00;;;;;;;;;;5012539;28;20928;-67
2021/05/14 10:50:36;;;;;;;16.03;13.53;;;;;;;;;;5012457;28;20532;-66
2021/05/14 10:53:28;;;;;;;16.50;14.70;;;;;;;;;;5012792;28;20438;-66
2021/05/14 10:55:56;;;;;;;16.63;13.50;;;;;;;;;;5009895;28;20601;-66
2021/05/14 10:58:53;;;;;;;15.80;14.10;;;;;;;;;;5012015;28;20449;-66
2021/05/14 11:01:30;;;;;;;15.23;13.17;;;;;;;;;;4951317;29;20463;-66
2021/05/14 11:03:57;;;;;;;16.30;14.70;;;;;;;;;;4982701;28;20462;-67
2021/05/14 11:06:25;;;;;;;18.93;14.97;;;;;;;;;;4992763;28;20480;-67
2021/05/14 11:08:58;;;;;;;16.60;13.97;;;;;;;;;;4993034;28;20470;-66
2021/05/14 11:11:25;;;;;;;16.80;15.00;;;;;;;;;;4992496;28;20454;-67
2021/05/14 11:13:52;;;;;;;18.57;14.87;;;;;;;;;;5015374;28;20458;-67
2021/05/14 11:16:32;;;;;;;19.07;16.40;;;;;;;;;;5011562;28;20461;-67
2021/05/14 11:18:58;;;;;;;17.50;15.70;;;;;;;;;;5012193;28;20568;-66
2021/05/14 11:21:40;;;;;;;18.97;16.20;;;;;;;;;;5012387;28;20712;-67
2021/05/14 11:24:07;;;;;;;19.47;16.10;;;;;;;;;;4993136;28;20454;-67
2021/05/14 11:26:33;;;;;;;17.40;15.70;;;;;;;;;;4992481;28;20516;-69
2021/05/14 11:29:00;;;;;;;17.17;15.37;;;;;;;;;;5028592;28;20543;-67
2021/05/14 11:31:27;;;;;;;19.43;16.53;;;;;;;;;;5018563;28;20445;-69
2021/05/14 11:33:55;;;;;;;17.50;15.70;;;;;;;;;;5012130;28;20467;-69
2021/05/14 11:36:21;;;;;;;22.33;16.47;;;;;;;;;;5014784;28;20450;-68
2021/05/14 11:38:49;;;;;;;18.70;15.10;;;;;;;;;;5031800;28;20460;-67
2021/05/14 11:41:16;;;;;;;19.90;17.23;;;;;;;;;;5022225;28;20453;-68
2021/05/14 11:43:52;;;;;;;16.73;14.50;;;;;;;;;;5012179;28;20489;-68
2021/05/14 11:46:19;;;;;;;18.50;14.80;;;;;;;;;;5014850;28;20444;-68
2021/05/14 11:48:45;;;;;;;18.97;16.27;;;;;;;;;;5034579;28;20473;-68
2021/05/14 11:51:15;;;;;;;19.13;15.07;;;;;;;;;;5030794;28;20947;-67
2021/05/14 11:53:42;;;;;;;19.50;14.47;;;;;;;;;;4997164;28;20915;-67
2021/05/14 11:56:08;;;;;;;19.47;15.57;;;;;;;;;;5010790;28;20463;-66
2021/05/14 11:58:35;;;;;;;17.10;15.30;;;;;;;;;;5030399;28;20529;-67
2021/05/14 12:01:03;;;;;;;16.97;15.37;;;;;;;;;;5034322;28;20449;-67
2021/05/14 12:03:30;;;;;;;17.43;15.70;;;;;;;;;;5021051;28;21004;-67
2021/05/14 12:06:03;;;;;;;17.07;15.50;;;;;;;;;;5015494;28;20588;-67
2021/05/14 12:08:31;;;;;;;18.23;16.07;;;;;;;;;;5015854;28;20464;-67
2021/05/14 12:11:00;;;;;;;18.33;16.23;;;;;;;;;;5018101;28;20453;-68
2021/05/14 12:13:28;;;;;;;20.63;17.43;;;;;;;;;;5020901;28;20459;-67
2021/05/14 12:15:58;;;;;;;21.03;18.87;;;;;;;;;;5034087;28;20730;-66
2021/05/14 12:18:24;;;;;;;20.00;18.00;;;;;;;;;;5025554;28;20956;-68
2021/05/14 12:20:53;;;;;;;19.80;18.17;;;;;;;;;;5025427;28;20560;-67
2021/05/14 12:23:21;;;;;;;19.97;17.97;;;;;;;;;;5014667;28;20513;-68
2021/05/14 12:25:49;;;;;;;19.67;17.67;;;;;;;;;;5005408;28;20557;-65
2021/05/14 12:28:34;;;;;;;20.07;18.00;;;;;;;;;;5015724;28;20454;-69
2021/05/14 12:31:01;;;;;;;20.57;18.60;;;;;;;;;;5014971;28;20449;-69
2021/05/14 12:33:28;;;;;;;19.27;17.40;;;;;;;;;;5021820;28;20491;-69
2021/05/14 12:35:56;;;;;;;19.60;17.50;;;;;;;;;;5014673;28;20493;-67
2021/05/14 12:38:37;;;;;;;19.67;17.80;;;;;;;;;;5015133;28;20798;-68
2021/05/14 12:41:04;;;;;;;20.33;18.23;;;;;;;;;;5013963;28;20965;-67
2021/05/14 12:43:31;;;;;;;21.60;18.10;;;;;;;;;;5014470;28;21019;-68
2021/05/14 12:46:05;;;;;;;20.90;18.80;;;;;;;;;;5015328;28;20477;-68
2021/05/14 12:48:32;;;;;;;22.97;20.60;;;;;;;;;;5034445;28;20459;-67
2021/05/14 12:50:58;;;;;;;21.43;19.33;;;;;;;;;;5034487;28;20444;-68
2021/05/14 12:53:25;;;;;;;23.13;20.70;;;;;;;;;;5015356;28;20545;-68
2021/05/14 12:55:51;;;;;;;23.03;19.43;;;;;;;;;;5013734;28;20466;-67
2021/05/14 12:58:19;;;;;;;24.73;21.00;;;;;;;;;;5012746;28;20544;-68
2021/05/14 13:00:46;;;;;;;22.50;20.30;;;;;;;;;;5014105;28;20555;-67
2021/05/14 13:03:13;;;;;;;26.77;21.40;;;;;;;;;;5014028;28;20477;-68
2021/05/14 13:05:40;;;;;;;24.27;21.93;;;;;;;;;;5014095;28;20560;-68
2021/05/14 13:08:07;;;;;;;23.20;20.80;;;;;;;;;;5014354;28;20788;-68
2021/05/14 13:10:35;;;;;;;21.60;19.50;;;;;;;;;;5013516;28;20484;-67
2021/05/14 13:13:02;;;;;;;22.93;20.73;;;;;;;;;;5012502;28;20450;-68
2021/05/14 13:15:29;;;;;;;22.40;20.17;;;;;;;;;;5013484;28;20460;-67
2021/05/14 13:17:56;;;;;;;23.37;21.03;;;;;;;;;;5013328;28;20458;-67
2021/05/14 13:20:23;;;;;;;23.33;21.10;;;;;;;;;;5013586;28;20484;-67
2021/05/14 13:22:49;;;;;;;21.93;19.80;;;;;;;;;;5013463;28;20489;-67
2021/05/14 13:25:16;;;;;;;22.73;20.53;;;;;;;;;;5013348;28;20493;-68
2021/05/14 13:27:43;;;;;;;23.17;20.83;;;;;;;;;;5013174;28;20466;-68
2021/05/14 13:30:10;;;;;;;23.20;20.70;;;;;;;;;;5013713;28;20531;-67
2021/05/14 13:32:38;;;;;;;23.70;21.40;;;;;;;;;;5013597;28;20504;-68
2021/05/14 13:35:05;;;;;;;24.07;21.50;;;;;;;;;;5013759;28;20553;-67
2021/05/14 13:37:32;;;;;;;24.40;22.10;;;;;;;;;;5012936;28;20449;-68
2021/05/14 13:39:59;;;;;;;23.37;21.17;;;;;;;;;;5013125;28;20484;-68
2021/05/14 13:42:26;;;;;;;22.90;20.50;;;;;;;;;;5013328;28;21024;-67
2021/05/14 13:44:52;;;;;;;24.20;21.00;;;;;;;;;;5013650;28;20752;-68
2021/05/14 13:47:19;;;;;;;21.70;19.70;;;;;;;;;;5012668;28;20821;-67
2021/05/14 13:49:46;;;;;;;23.17;21.07;;;;;;;;;;5013512;28;20477;-67
2021/05/14 13:52:13;;;;;;;21.90;19.80;;;;;;;;;;5013176;28;20452;-67
2021/05/14 13:54:40;;;;;;;20.83;18.80;;;;;;;;;;5010193;28;20500;-68
2021/05/14 13:57:06;;;;;;;20.40;18.57;;;;;;;;;;5013055;28;20462;-68
2021/05/14 13:59:33;;;;;;;20.23;18.33;;;;;;;;;;5012647;28;20490;-66
2021/05/14 14:02:00;;;;;;;19.27;17.60;;;;;;;;;;5027184;28;20469;-67
2021/05/14 14:04:27;;;;;;;19.30;17.63;;;;;;;;;;5013493;28;20460;-66
2021/05/14 14:06:54;;;;;;;17.63;16.10;;;;;;;;;;5015208;28;21018;-66
2021/05/14 14:09:21;;;;;;;18.77;16.87;;;;;;;;;;5014833;28;20894;-68
2021/05/14 14:11:49;;;;;;;18.67;16.43;;;;;;;;;;5024606;28;20465;-68
2021/05/14 14:14:16;;;;;;;18.93;17.00;;;;;;;;;;5013332;28;20476;-67
2021/05/14 14:16:43;;;;;;;18.70;17.00;;;;;;;;;;5015978;28;20863;-68
2021/05/14 14:19:09;;;;;;;18.50;16.80;;;;;;;;;;5013621;28;21053;-67
2021/05/14 14:21:36;;;;;;;18.43;16.63;;;;;;;;;;5030521;28;20458;-67
2021/05/14 14:24:04;;;;;;;22.07;18.70;;;;;;;;;;5025333;28;20515;-67
2021/05/14 14:26:31;;;;;;;19.87;18.03;;;;;;;;;;5011363;28;20536;-68
2021/05/14 14:28:58;;;;;;;20.03;18.20;;;;;;;;;;5011085;28;20481;-67
2021/05/14 14:31:26;;;;;;;21.37;19.03;;;;;;;;;;5011406;28;20541;-67
2021/05/14 14:33:53;;;;;;;19.40;17.70;;;;;;;;;;5010641;28;20469;-68
2021/05/14 14:36:19;;;;;;;21.60;19.40;;;;;;;;;;5011469;28;20460;-67